Time;durP1;ratioP1;P1;durP2;ratioP2;P2;SDS_P1;SDS_P2;PMS_P1;PMS_P2;Temp;Humidity;BMP_temperature;BMP_pressure;BME280_temperature;BME280_humidity;BME280_pressure;Samples;Min_cycle;Max_cycle;Signal;HPM_P1;HPM_P2
2023/10/01 00:00:12;;;;;;;3.28;1.30;;;15.50;98.90;;;;;;5061031;28;20078;-63
2023/10/01 00:02:39;;;;;;;2.92;1.27;;;15.60;98.80;;;;;;5060059;28;20036;-63
2023/10/01 00:05:06;;;;;;;3.80;1.50;;;15.50;98.80;;;;;;5061502;28;20043;-63
2023/10/01 00:07:37;;;;;;;2.65;1.40;;;15.60;98.90;;;;;;5061214;28;20033;-63
2023/10/01 00:10:10;;;;;;;2.85;1.60;;;15.50;99.10;;;;;;5061691;28;20033;-64
2023/10/01 00:12:47;;;;;;;2.88;1.38;;;15.60;99.10;;;;;;5061583;28;20146;-63
2023/10/01 00:15:18;;;;;;;3.97;1.50;;;15.50;99.00;;;;;;5061510;28;20033;-63
2023/10/01 00:17:45;;;;;;;2.90;1.38;;;15.60;99.00;;;;;;5060851;28;20047;-63
2023/10/01 00:20:25;;;;;;;4.90;1.35;;;15.60;99.10;;;;;;5060923;28;20032;-63
2023/10/01 00:23:14;;;;;;;2.17;1.27;;;15.60;99.10;;;;;;5058535;28;20451;-63
2023/10/01 00:25:41;;;;;;;3.80;1.50;;;15.60;99.10;;;;;;5060768;28;20048;-63
2023/10/01 00:28:08;;;;;;;8.95;1.67;;;15.60;99.10;;;;;;5058228;28;20112;-64
2023/10/01 00:30:34;;;;;;;2.30;1.02;;;15.60;99.10;;;;;;5064232;28;20063;-64
2023/10/01 00:33:02;;;;;;;5.30;1.40;;;15.60;99.10;;;;;;5058959;28;20601;-63
2023/10/01 00:35:29;;;;;;;7.80;1.67;;;15.60;99.10;;;;;;5061889;28;20048;-63
2023/10/01 00:37:55;;;;;;;3.53;1.23;;;15.60;99.10;;;;;;5059915;28;20119;-63
2023/10/01 00:40:21;;;;;;;2.83;1.35;;;15.70;99.10;;;;;;5057495;28;20128;-63
2023/10/01 00:42:47;;;;;;;1.92;1.20;;;15.70;99.00;;;;;;5064439;28;20513;-63
2023/10/01 00:45:16;;;;;;;5.25;1.70;;;15.70;99.00;;;;;;5058028;28;20131;-63
2023/10/01 00:47:43;;;;;;;5.97;1.85;;;15.70;99.00;;;;;;5064648;28;20032;-63
2023/10/01 00:50:34;;;;;;;2.55;1.50;;;15.70;98.80;;;;;;5070780;28;20116;-64
2023/10/01 00:53:00;;;;;;;4.25;1.60;;;15.70;98.90;;;;;;5057011;28;20545;-63
2023/10/01 00:55:28;;;;;;;2.25;1.27;;;15.70;98.70;;;;;;5058467;28;20037;-63
2023/10/01 00:57:55;;;;;;;1.92;1.20;;;15.70;98.70;;;;;;5058022;28;20400;-63
2023/10/01 01:00:20;;;;;;;4.63;1.35;;;15.70;98.70;;;;;;5062954;28;20059;-63
2023/10/01 01:02:57;;;;;;;4.47;1.20;;;15.70;98.60;;;;;;5063583;28;20051;-63
2023/10/01 01:05:37;;;;;;;3.80;1.58;;;15.70;98.60;;;;;;5058513;28;20051;-63
2023/10/01 01:08:22;;;;;;;3.30;1.30;;;15.70;98.70;;;;;;5059440;28;20046;-63
2023/10/01 01:10:50;;;;;;;3.67;1.60;;;15.70;98.60;;;;;;5062137;28;20118;-63
2023/10/01 01:13:18;;;;;;;2.78;1.10;;;15.70;98.60;;;;;;5056064;28;20039;-63
2023/10/01 01:15:51;;;;;;;1.98;1.30;;;15.70;98.60;;;;;;5061048;28;20468;-63
2023/10/01 01:18:20;;;;;;;3.10;1.40;;;15.70;98.60;;;;;;5060588;28;20036;-63
2023/10/01 01:20:47;;;;;;;4.75;1.48;;;15.70;98.60;;;;;;5059774;28;20137;-62
2023/10/01 01:23:18;;;;;;;4.93;1.58;;;15.70;98.70;;;;;;5059438;28;20031;-63
2023/10/01 01:25:45;;;;;;;3.17;1.48;;;15.70;98.60;;;;;;5064045;28;20032;-63
2023/10/01 01:28:15;;;;;;;2.35;1.65;;;15.70;98.60;;;;;;5061208;28;20024;-63
2023/10/01 01:30:47;;;;;;;1.85;1.08;;;15.70;98.60;;;;;;5061083;28;20028;-63
2023/10/01 01:33:13;;;;;;;2.55;1.50;;;15.70;98.60;;;;;;5058142;28;20043;-63
2023/10/01 01:35:42;;;;;;;4.40;1.40;;;15.70;98.50;;;;;;5061592;28;20032;-64
2023/10/01 01:38:09;;;;;;;5.55;1.75;;;15.70;98.50;;;;;;5058006;28;20464;-63
2023/10/01 01:40:40;;;;;;;3.92;1.60;;;15.70;98.40;;;;;;5060326;28;20037;-63
2023/10/01 01:43:15;;;;;;;3.25;1.30;;;15.70;98.30;;;;;;5058948;28;20633;-63
2023/10/01 01:45:44;;;;;;;4.55;1.45;;;15.70;98.30;;;;;;5057331;28;20040;-63
2023/10/01 01:51:10;;;;;;;4.07;1.70;;;15.70;98.40;;;;;;5029045;28;20040;-63
2023/10/01 01:53:36;;;;;;;5.68;1.50;;;15.70;98.30;;;;;;5060704;28;20039;-67
2023/10/01 01:56:10;;;;;;;3.58;1.35;;;15.70;98.20;;;;;;5065177;28;20025;-67
2023/10/01 01:58:39;;;;;;;4.70;1.50;;;15.70;98.20;;;;;;5055566;28;20522;-63
2023/10/01 02:01:17;;;;;;;4.70;1.35;;;15.70;98.30;;;;;;5046011;28;20032;-63
2023/10/01 02:03:46;;;;;;;3.65;1.17;;;15.70;98.30;;;;;;5058386;28;20023;-63
2023/10/01 02:06:14;;;;;;;2.50;1.40;;;15.60;98.20;;;;;;5069998;28;20025;-63
2023/10/01 02:08:48;;;;;;;5.57;1.65;;;15.60;98.30;;;;;;5060405;28;20079;-63
2023/10/01 02:11:14;;;;;;;5.28;1.83;;;15.60;98.30;;;;;;5071142;28;20040;-63
2023/10/01 02:13:41;;;;;;;3.90;1.45;;;15.60;98.40;;;;;;5064221;28;20028;-63
2023/10/01 02:16:30;;;;;;;5.10;1.88;;;15.60;98.30;;;;;;5059290;28;20112;-63
2023/10/01 02:21:52;;;;;;;4.07;1.77;;;15.60;98.40;;;;;;5062945;28;20028;-62
2023/10/01 02:24:23;;;;;;;5.60;1.80;;;15.60;98.50;;;;;;5054686;28;20029;-62
2023/10/01 02:26:53;;;;;;;3.75;1.80;;;15.60;98.50;;;;;;5059484;28;20303;-63
2023/10/01 02:29:24;;;;;;;3.15;1.63;;;15.60;98.40;;;;;;5060750;28;20448;-63
2023/10/01 02:31:56;;;;;;;4.15;1.63;;;15.60;98.40;;;;;;5059573;28;20032;-63
2023/10/01 02:34:29;;;;;;;4.88;1.88;;;15.60;98.50;;;;;;5054739;28;20039;-63
2023/10/01 02:36:56;;;;;;;4.30;1.40;;;15.60;98.50;;;;;;5060928;28;20040;-63
2023/10/01 02:39:28;;;;;;;3.75;1.55;;;15.60;98.50;;;;;;5056544;28;20032;-63
2023/10/01 02:44:34;;;;;;;3.55;1.73;;;15.60;98.50;;;;;;5058081;28;20028;-63
2023/10/01 02:47:09;;;;;;;4.25;1.65;;;15.60;98.50;;;;;;5059035;28;20067;-62
2023/10/01 02:49:47;;;;;;;5.05;1.70;;;15.60;98.40;;;;;;5056557;28;20466;-63
2023/10/01 02:52:14;;;;;;;4.85;1.80;;;15.60;98.40;;;;;;5063379;28;20033;-64
2023/10/01 02:54:40;;;;;;;4.55;1.70;;;15.60;98.30;;;;;;5062920;28;20037;-64
2023/10/01 02:57:12;;;;;;;4.43;1.95;;;15.60;98.40;;;;;;5061715;28;20041;-64
2023/10/01 03:02:30;;;;;;;4.10;1.60;;;15.70;98.10;;;;;;5060669;28;20591;-64
2023/10/01 03:05:03;;;;;;;5.50;1.58;;;15.70;98.20;;;;;;5056903;28;20086;-64
2023/10/01 03:07:37;;;;;;;5.05;2.03;;;15.70;98.30;;;;;;5061313;28;20036;-65
2023/10/01 03:10:11;;;;;;;4.28;2.17;;;15.70;98.20;;;;;;5055997;28;20060;-65
2023/10/01 03:12:40;;;;;;;4.35;1.70;;;15.70;98.20;;;;;;5058162;28;20036;-65
2023/10/01 03:17:55;;;;;;;8.50;3.17;;;15.70;98.30;;;;;;5055251;28;20032;-65
2023/10/01 03:28:26;;;;;;;6.50;2.20;;;15.80;98.10;;;;;;5057423;28;20037;-65
2023/10/01 03:31:14;;;;;;;4.03;2.28;;;15.80;98.20;;;;;;5056907;28;20365;-64
2023/10/01 03:33:40;;;;;;;4.70;1.83;;;15.80;98.20;;;;;;5057478;28;20451;-64
2023/10/01 03:36:09;;;;;;;3.53;1.65;;;15.80;98.10;;;;;;5056830;28;20017;-64
2023/10/01 03:38:37;;;;;;;5.78;2.00;;;15.80;98.20;;;;;;5060315;28;20091;-64
2023/10/01 03:41:08;;;;;;;3.70;1.95;;;15.80;98.10;;;;;;5054120;28;20582;-64
2023/10/01 03:43:35;;;;;;;3.05;1.80;;;15.80;98.10;;;;;;5059945;28;20029;-64
2023/10/01 03:46:14;;;;;;;6.82;2.10;;;15.80;98.10;;;;;;5055050;28;20136;-64
2023/10/01 03:48:58;;;;;;;4.47;2.05;;;15.80;98.10;;;;;;5057413;28;20098;-64
2023/10/01 03:51:53;;;;;;;6.43;2.20;;;15.80;98.10;;;;;;5054611;28;20033;-64
2023/10/01 03:54:52;;;;;;;4.55;1.73;;;15.80;98.10;;;;;;5057272;28;20121;-64
2023/10/01 03:57:17;;;;;;;4.05;2.00;;;15.80;98.10;;;;;;5055224;28;20032;-64
2023/10/01 03:59:52;;;;;;;5.05;1.70;;;15.80;98.10;;;;;;5059739;28;20395;-64
2023/10/01 04:02:28;;;;;;;3.22;1.67;;;15.80;98.10;;;;;;5059817;28;20097;-64
2023/10/01 04:04:58;;;;;;;4.22;2.00;;;15.90;98.10;;;;;;5061036;28;20036;-64
2023/10/01 04:07:40;;;;;;;2.75;1.60;;;15.90;98.10;;;;;;5060609;28;20025;-65
2023/10/01 04:10:13;;;;;;;3.35;1.65;;;15.90;98.10;;;;;;5059475;28;20052;-64
2023/10/01 04:12:50;;;;;;;2.22;1.58;;;15.90;98.10;;;;;;5062268;28;20028;-65
2023/10/01 04:15:31;;;;;;;4.43;2.03;;;15.80;98.10;;;;;;5059481;28;20035;-65
2023/10/01 04:20:37;;;;;;;3.65;1.75;;;15.80;98.20;;;;;;5055273;28;20031;-65
2023/10/01 04:23:06;;;;;;;4.40;2.10;;;15.90;98.30;;;;;;5061630;28;20032;-65
2023/10/01 04:25:36;;;;;;;3.58;2.03;;;15.90;98.30;;;;;;5060933;28;20647;-65
2023/10/01 04:28:05;;;;;;;5.10;2.33;;;15.90;98.30;;;;;;5060351;28;20020;-65
2023/10/01 04:30:34;;;;;;;4.43;2.10;;;15.90;98.40;;;;;;5060493;28;21401;-64
2023/10/01 04:33:22;;;;;;;5.78;2.45;;;15.90;98.30;;;;;;5064812;28;20029;-65
2023/10/01 04:35:55;;;;;;;4.35;2.10;;;15.80;98.20;;;;;;5063480;28;20460;-65
2023/10/01 04:38:22;;;;;;;6.15;2.20;;;15.90;98.20;;;;;;5062280;28;20028;-65
2023/10/01 04:40:49;;;;;;;4.55;2.03;;;15.90;98.20;;;;;;5060630;28;20040;-64
2023/10/01 04:43:16;;;;;;;3.08;1.70;;;15.90;98.20;;;;;;5057936;28;20049;-64
2023/10/01 04:45:44;;;;;;;3.58;1.70;;;15.90;98.10;;;;;;5061340;28;20028;-64
2023/10/01 04:48:22;;;;;;;4.28;2.15;;;15.90;98.20;;;;;;5070700;28;20551;-64
2023/10/01 04:50:54;;;;;;;4.47;2.22;;;15.90;98.20;;;;;;5060183;28;20115;-64
2023/10/01 04:53:25;;;;;;;4.43;1.75;;;15.90;98.20;;;;;;5058847;28;20017;-64
2023/10/01 04:56:06;;;;;;;6.10;2.08;;;15.90;98.20;;;;;;5060389;28;20613;-64
2023/10/01 04:58:41;;;;;;;4.57;1.80;;;15.90;98.30;;;;;;5060970;28;20035;-64
2023/10/01 05:01:13;;;;;;;3.65;2.00;;;15.90;98.30;;;;;;5060433;28;20028;-64
2023/10/01 05:03:39;;;;;;;4.80;2.17;;;15.90;98.30;;;;;;5060963;28;20032;-64
2023/10/01 05:06:22;;;;;;;4.95;2.33;;;15.90;98.30;;;;;;5058600;28;20889;-63
2023/10/01 05:08:51;;;;;;;2.40;1.92;;;15.90;98.30;;;;;;5059743;28;20059;-64
2023/10/01 05:11:39;;;;;;;2.97;1.90;;;15.90;98.20;;;;;;5054957;28;20495;-64
2023/10/01 05:14:04;;;;;;;;;;;15.90;98.20;;;;;;5060294;28;20066;-64
2023/10/01 05:16:38;;;;;;;5.13;2.05;;;15.90;98.20;;;;;;5058502;28;20147;-64
2023/10/01 05:19:09;;;;;;;5.50;2.30;;;15.90;98.20;;;;;;5060898;28;20067;-66
2023/10/01 05:21:46;;;;;;;4.85;2.08;;;15.90;98.20;;;;;;5065392;28;20116;-67
2023/10/01 05:24:15;;;;;;;3.38;1.83;;;15.90;98.20;;;;;;5045075;28;20093;-67
2023/10/01 05:26:44;;;;;;;3.00;1.92;;;15.90;98.10;;;;;;5060234;28;20504;-68
2023/10/01 05:29:13;;;;;;;9.15;2.25;;;15.90;98.10;;;;;;5064989;28;20699;-68
2023/10/01 05:31:41;;;;;;;6.10;2.35;;;15.90;98.10;;;;;;5065029;28;20143;-67
2023/10/01 05:34:06;;;;;;;6.18;2.10;;;15.90;98.00;;;;;;5065353;28;20073;-67
2023/10/01 05:36:35;;;;;;;2.72;1.65;;;15.90;98.10;;;;;;5065601;28;20064;-67
2023/10/01 05:39:01;;;;;;;4.63;1.80;;;16.00;98.10;;;;;;5065505;28;20399;-69
2023/10/01 05:41:32;;;;;;;5.45;2.25;;;16.00;98.10;;;;;;5065118;28;20032;-67
2023/10/01 05:44:01;;;;;;;3.70;1.95;;;16.00;98.10;;;;;;5065957;28;20039;-67
2023/10/01 05:46:28;;;;;;;4.78;2.15;;;16.00;98.10;;;;;;5061602;28;20048;-67
2023/10/01 05:49:00;;;;;;;3.67;2.10;;;16.00;98.10;;;;;;5065341;28;20684;-67
2023/10/01 05:51:45;;;;;;;5.00;2.55;;;16.00;98.10;;;;;;5065439;28;20476;-68
2023/10/01 05:54:18;;;;;;;4.07;1.83;;;16.00;98.00;;;;;;5065009;28;20507;-67
2023/10/01 05:56:48;;;;;;;3.45;1.77;;;16.00;98.10;;;;;;5065415;28;20064;-67
2023/10/01 05:59:22;;;;;;;5.35;2.50;;;16.10;98.20;;;;;;5056637;28;20403;-67
2023/10/01 06:01:48;;;;;;;8.32;2.50;;;16.20;97.30;;;;;;5065032;28;20483;-67
2023/10/01 06:04:17;;;;;;;4.95;2.00;;;16.20;96.80;;;;;;5063405;28;20036;-67
2023/10/01 06:06:45;;;;;;;4.50;2.13;;;16.30;96.80;;;;;;5064868;28;20021;-68
2023/10/01 06:09:17;;;;;;;6.35;2.70;;;16.30;97.00;;;;;;5061825;28;20028;-68
2023/10/01 06:11:51;;;;;;;5.15;2.00;;;16.30;97.00;;;;;;5057371;28;20441;-67
2023/10/01 06:17:01;;;;;;;2.88;1.80;;;16.30;97.00;;;;;;5064419;28;20083;-67
2023/10/01 06:19:34;;;;;;;3.30;1.73;;;16.40;97.40;;;;;;5064692;28;20043;-68
2023/10/01 06:22:22;;;;;;;4.80;2.10;;;16.40;97.70;;;;;;5059266;28;20128;-68
2023/10/01 06:24:47;;;;;;;4.38;2.33;;;16.40;97.00;;;;;;5059571;28;20064;-68
2023/10/01 06:27:17;;;;;;;6.10;2.92;;;16.50;96.30;;;;;;5063036;28;20056;-68
2023/10/01 06:29:49;;;;;;;4.63;2.40;;;16.50;96.20;;;;;;5066048;28;20033;-68
2023/10/01 06:32:22;;;;;;;6.68;2.20;;;16.60;96.00;;;;;;5065399;28;20037;-67
2023/10/01 06:34:49;;;;;;;5.53;2.30;;;16.70;96.00;;;;;;5065482;28;20064;-68
2023/10/01 06:37:15;;;;;;;9.88;2.22;;;16.70;95.80;;;;;;5065799;28;20044;-67
2023/10/01 06:39:43;;;;;;;6.18;2.38;;;16.80;95.90;;;;;;5066424;28;20047;-68
2023/10/01 06:42:18;;;;;;;5.60;2.40;;;16.90;95.80;;;;;;5062433;28;20036;-68
2023/10/01 06:44:49;;;;;;;5.47;2.42;;;16.90;95.40;;;;;;5058094;28;20033;-66
2023/10/01 06:47:16;;;;;;;6.15;2.05;;;17.00;95.20;;;;;;5058870;28;20377;-65
2023/10/01 06:52:34;;;;;;;5.20;2.00;;;16.90;95.20;;;;;;5061420;28;20052;-67
2023/10/01 06:55:03;;;;;;;5.05;2.17;;;17.10;94.80;;;;;;5064833;28;20029;-66
2023/10/01 06:57:39;;;;;;;6.25;2.63;;;17.10;94.90;;;;;;5064254;28;20536;-65
2023/10/01 07:00:13;;;;;;;3.53;1.75;;;17.10;95.10;;;;;;5065119;28;20032;-66
2023/10/01 07:02:40;;;;;;;3.75;2.20;;;17.10;95.50;;;;;;5063708;28;20033;-66
2023/10/01 07:05:06;;;;;;;7.40;2.70;;;17.10;95.90;;;;;;5058931;28;20440;-66
2023/10/01 07:07:35;;;;;;;10.43;2.70;;;17.20;96.00;;;;;;5061705;28;20556;-64
2023/10/01 07:10:10;;;;;;;4.97;2.25;;;17.30;95.40;;;;;;5061544;28;20097;-65
2023/10/01 07:12:36;;;;;;;5.10;1.98;;;17.30;95.30;;;;;;5061668;28;20127;-64
2023/10/01 07:15:02;;;;;;;4.57;2.03;;;17.40;95.40;;;;;;5059689;28;20029;-64
2023/10/01 07:17:28;;;;;;;10.00;2.90;;;17.50;95.20;;;;;;5065066;28;20100;-64
2023/10/01 07:20:00;;;;;;;5.90;2.40;;;17.70;95.00;;;;;;5060857;28;20249;-64
2023/10/01 07:22:34;;;;;;;7.28;2.35;;;17.70;95.00;;;;;;5060883;28;20116;-64
2023/10/01 07:25:01;;;;;;;3.55;1.50;;;17.90;94.30;;;;;;5064993;28;20601;-65
2023/10/01 07:27:28;;;;;;;6.88;2.47;;;17.90;94.70;;;;;;5064857;28;20028;-64
2023/10/01 07:29:54;;;;;;;7.95;2.42;;;18.00;94.40;;;;;;5065168;28;20036;-64
2023/10/01 07:32:23;;;;;;;11.35;2.58;;;18.10;93.80;;;;;;5062897;28;20028;-65
2023/10/01 07:34:55;;;;;;;6.50;2.30;;;18.10;93.80;;;;;;5066042;28;20079;-64
2023/10/01 07:37:31;;;;;;;5.60;2.35;;;18.10;93.20;;;;;;5066035;28;20103;-65
2023/10/01 07:40:17;;;;;;;6.25;2.50;;;18.10;93.50;;;;;;5065473;28;20094;-64
2023/10/01 07:42:54;;;;;;;5.32;2.10;;;18.20;93.10;;;;;;5062626;28;20407;-65
2023/10/01 07:45:24;;;;;;;4.72;2.00;;;18.30;93.50;;;;;;5064682;28;20041;-66
2023/10/01 07:47:50;;;;;;;3.67;1.92;;;18.30;93.90;;;;;;5064718;28;20522;-66
2023/10/01 07:50:17;;;;;;;3.45;1.90;;;18.30;93.70;;;;;;5060186;28;20032;-63
2023/10/01 07:52:44;;;;;;;5.40;2.10;;;18.40;93.90;;;;;;5063361;28;20650;-62
2023/10/01 07:58:18;;;;;;;4.88;2.17;;;18.40;93.40;;;;;;5059809;28;20044;-63
2023/10/01 08:00:44;;;;;;;6.50;2.38;;;18.50;93.20;;;;;;5059094;28;20032;-63
2023/10/01 08:06:10;;;;;;;5.90;2.15;;;18.50;92.60;;;;;;5059585;28;20483;-63
2023/10/01 08:08:37;;;;;;;5.18;2.10;;;18.60;92.90;;;;;;5063626;28;20067;-67
2023/10/01 08:11:37;;;;;;;3.80;2.00;;;18.60;92.60;;;;;;5061999;28;20476;-67
2023/10/01 08:13:51;;;;;;;4.82;2.10;;;18.70;92.70;;;;;;5059285;28;20028;-66
2023/10/01 08:16:17;;;;;;;4.70;2.20;;;18.70;92.40;;;;;;5061173;28;20024;-66
2023/10/01 08:18:46;;;;;;;4.82;2.53;;;18.70;92.80;;;;;;5060979;28;20042;-66
2023/10/01 08:21:18;;;;;;;4.82;2.65;;;18.80;92.20;;;;;;5060956;28;20033;-62
2023/10/01 08:23:54;;;;;;;4.45;1.92;;;18.80;92.00;;;;;;5063355;28;20447;-65
2023/10/01 08:29:06;;;;;;;4.75;2.00;;;18.80;93.10;;;;;;5058603;28;20515;-66
2023/10/01 08:34:24;;;;;;;7.13;2.25;;;18.90;92.60;;;;;;5057087;28;20033;-63
2023/10/01 08:41:01;;;;;;;4.20;2.10;;;18.90;92.80;;;;;;5016375;28;20052;-64
2023/10/01 08:45:11;;;;;;;7.17;2.93;;;19.10;92.10;;;;;;5035888;28;20087;-63
2023/10/01 08:49:18;;;;;;;7.63;2.67;;;19.30;92.10;;;;;;4973106;28;20309;-62
2023/10/01 08:52:19;;;;;;;22.38;4.75;;;19.50;91.80;;;;;;4953412;29;20046;-62
2023/10/01 08:54:48;;;;;;;7.25;3.60;;;19.60;90.80;;;;;;4947088;28;20133;-63
2023/10/01 08:57:18;;;;;;;8.52;3.35;;;19.70;90.90;;;;;;4983123;28;20487;-63
2023/10/01 08:59:47;;;;;;;9.90;3.03;;;19.70;90.90;;;;;;5057448;28;20042;-63
2023/10/01 09:02:19;;;;;;;6.70;2.72;;;19.80;90.80;;;;;;5059336;28;20024;-64
2023/10/01 09:04:47;;;;;;;6.68;3.10;;;19.90;90.80;;;;;;5056466;28;20033;-63
2023/10/01 09:07:18;;;;;;;8.30;3.40;;;20.00;90.70;;;;;;5061021;28;20021;-63
2023/10/01 09:10:05;;;;;;;7.80;3.47;;;20.00;90.30;;;;;;5057625;28;20601;-64
2023/10/01 09:12:34;;;;;;;5.88;3.22;;;20.10;90.10;;;;;;5063695;28;20085;-67
2023/10/01 09:15:02;;;;;;;8.25;3.35;;;20.00;90.00;;;;;;5059106;28;20086;-67
2023/10/01 09:17:40;;;;;;;5.25;2.38;;;20.10;90.80;;;;;;5061306;28;20499;-63
2023/10/01 09:20:08;;;;;;;6.03;3.03;;;20.20;90.60;;;;;;5056068;28;20401;-63
2023/10/01 09:25:18;;;;;;;7.07;2.70;;;20.40;89.50;;;;;;5057335;28;20025;-62
2023/10/01 09:27:57;;;;;;;9.88;3.20;;;20.50;88.30;;;;;;5058364;28;20607;-61
2023/10/01 09:30:26;;;;;;;6.85;2.90;;;20.50;88.60;;;;;;5056850;28;20024;-62
2023/10/01 09:32:57;;;;;;;7.95;3.38;;;20.60;89.00;;;;;;5063871;28;20533;-62
2023/10/01 09:35:30;;;;;;;5.22;2.53;;;20.60;88.00;;;;;;5058556;28;20047;-64
2023/10/01 09:38:27;;;;;;;8.48;4.13;;;20.70;88.40;;;;;;5061732;28;20050;-62
2023/10/01 09:40:55;;;;;;;8.48;3.47;;;20.90;87.40;;;;;;5054313;28;20047;-62
2023/10/01 09:43:27;;;;;;;6.45;2.90;;;21.00;87.60;;;;;;5059106;28;20091;-62
2023/10/01 09:45:54;;;;;;;7.55;3.20;;;21.20;87.10;;;;;;5058231;28;20033;-62
2023/10/01 09:48:30;;;;;;;7.15;2.92;;;21.20;85.00;;;;;;5059516;28;20032;-62
2023/10/01 09:51:08;;;;;;;8.43;2.78;;;21.20;85.60;;;;;;5059129;28;20036;-64
2023/10/01 09:53:50;;;;;;;5.75;2.75;;;21.30;85.10;;;;;;5058190;28;20392;-65
2023/10/01 09:56:27;;;;;;;5.57;2.63;;;21.30;85.10;;;;;;5056968;28;20032;-59
2023/10/01 09:59:07;;;;;;;6.45;3.20;;;21.30;84.10;;;;;;5059095;28;20024;-62
2023/10/01 10:01:37;;;;;;;6.38;3.70;;;21.30;85.50;;;;;;5054179;28;20063;-62
2023/10/01 10:04:06;;;;;;;7.53;3.53;;;21.30;84.40;;;;;;5058467;28;20694;-62
2023/10/01 10:06:32;;;;;;;6.75;3.15;;;21.50;82.80;;;;;;5058208;28;20036;-61
2023/10/01 10:09:03;;;;;;;5.55;2.88;;;21.50;84.20;;;;;;5059712;28;20024;-60
2023/10/01 10:11:40;;;;;;;7.28;2.80;;;21.50;83.10;;;;;;5058267;28;20037;-59
2023/10/01 10:14:27;;;;;;;6.60;3.28;;;21.60;82.40;;;;;;5056567;28;20046;-61
2023/10/01 10:20:15;;;;;;;5.93;2.78;;;21.70;83.40;;;;;;5057838;28;20435;-61
2023/10/01 10:23:13;;;;;;;8.48;3.40;;;21.90;83.20;;;;;;5065417;28;20032;-61
2023/10/01 10:25:40;;;;;;;7.75;3.42;;;22.40;81.60;;;;;;5057574;28;20032;-61
2023/10/01 10:28:07;;;;;;;11.00;5.03;;;23.60;78.90;;;;;;5057870;28;20054;-61
2023/10/01 10:30:32;;;;;;;9.15;4.82;;;24.70;74.00;;;;;;5054625;28;20037;-61
2023/10/01 10:33:17;;;;;;;10.50;5.15;;;24.80;72.20;;;;;;5061919;28;20032;-61
2023/10/01 10:35:49;;;;;;;8.23;3.47;;;24.40;73.10;;;;;;5060141;28;20034;-61
2023/10/01 10:38:51;;;;;;;6.90;3.00;;;23.90;74.80;;;;;;5059445;28;20484;-62
2023/10/01 10:41:17;;;;;;;10.45;3.35;;;23.60;75.60;;;;;;5056691;28;20025;-63
2023/10/01 10:44:08;;;;;;;7.20;3.80;;;23.80;76.50;;;;;;5059741;28;20132;-62
2023/10/01 10:47:03;;;;;;;8.00;3.13;;;24.10;74.30;;;;;;5055901;28;20400;-62
2023/10/01 10:49:51;;;;;;;6.47;3.40;;;24.60;73.40;;;;;;5051622;28;20044;-62
2023/10/01 10:52:31;;;;;;;9.13;4.00;;;24.70;71.80;;;;;;5056402;28;20289;-62
2023/10/01 10:55:19;;;;;;;5.50;3.08;;;24.50;70.50;;;;;;5056369;28;20055;-62
2023/10/01 10:57:48;;;;;;;7.88;3.80;;;24.30;72.70;;;;;;5055734;28;20040;-62
2023/10/01 11:00:25;;;;;;;10.68;3.13;;;24.00;72.80;;;;;;5055392;28;20044;-62
2023/10/01 11:02:57;;;;;;;6.05;3.30;;;23.60;74.00;;;;;;5060065;28;20024;-62
2023/10/01 11:05:29;;;;;;;5.93;3.20;;;23.30;74.50;;;;;;5055748;28;20036;-62
2023/10/01 11:07:59;;;;;;;7.85;3.90;;;22.80;76.50;;;;;;5059681;28;20037;-62
2023/10/01 11:10:27;;;;;;;9.73;3.95;;;22.50;78.00;;;;;;5057763;28;20141;-63
2023/10/01 11:12:54;;;;;;;5.70;3.08;;;22.30;78.90;;;;;;5059643;28;20028;-62
2023/10/01 11:15:23;;;;;;;10.38;3.40;;;22.20;79.20;;;;;;5059773;28;20420;-61
2023/10/01 11:18:01;;;;;;;5.75;3.17;;;22.20;79.40;;;;;;5063621;28;20135;-61
2023/10/01 11:20:33;;;;;;;6.07;3.05;;;22.10;78.80;;;;;;5060263;28;20068;-62
2023/10/01 11:22:59;;;;;;;7.05;2.97;;;22.10;79.00;;;;;;5063125;28;20033;-62
2023/10/01 11:25:25;;;;;;;6.55;3.20;;;22.00;79.30;;;;;;5059690;28;20562;-62
2023/10/01 11:28:06;;;;;;;7.75;3.20;;;21.90;79.20;;;;;;5065740;28;20090;-62
2023/10/01 11:30:42;;;;;;;7.30;2.97;;;21.80;79.20;;;;;;5060639;28;20032;-62
2023/10/01 11:35:40;;;;;;;7.55;3.00;;;21.80;79.90;;;;;;5064430;28;20043;-61
2023/10/01 11:38:12;;;;;;;9.40;2.75;;;21.80;80.40;;;;;;5061804;28;20025;-62
2023/10/01 11:43:32;;;;;;;5.78;3.17;;;21.80;80.70;;;;;;5062703;28;20056;-62
2023/10/01 11:46:35;;;;;;;9.38;3.05;;;21.80;80.80;;;;;;5060056;28;20052;-60
2023/10/01 11:49:06;;;;;;;6.15;2.70;;;21.90;79.70;;;;;;5032353;28;20043;-61
2023/10/01 11:52:05;;;;;;;12.48;2.67;;;22.00;79.60;;;;;;5061070;28;20031;-60
2023/10/01 11:54:45;;;;;;;8.68;2.78;;;22.20;78.60;;;;;;5062868;28;20033;-60
2023/10/01 11:57:25;;;;;;;4.03;2.28;;;22.40;78.00;;;;;;5060349;28;20028;-61
2023/10/01 11:59:56;;;;;;;5.18;2.50;;;22.40;77.50;;;;;;5062325;28;20153;-61
2023/10/01 12:02:33;;;;;;;7.03;2.65;;;22.40;77.20;;;;;;5060312;28;20124;-61
2023/10/01 12:05:06;;;;;;;8.77;3.70;;;22.40;77.40;;;;;;5061446;28;20032;-61
2023/10/01 12:07:43;;;;;;;7.53;3.50;;;22.30;75.70;;;;;;5061465;28;20037;-61
2023/10/01 12:12:55;;;;;;;5.43;2.65;;;22.10;74.80;;;;;;5063415;28;20093;-61
2023/10/01 12:18:13;;;;;;;6.53;2.53;;;21.90;75.00;;;;;;5059477;28;20032;-61
2023/10/01 12:20:50;;;;;;;6.93;2.22;;;21.80;76.40;;;;;;5060708;28;20041;-61
2023/10/01 12:23:19;;;;;;;7.55;2.70;;;21.80;76.90;;;;;;5058059;28;20503;-61
2023/10/01 12:28:29;;;;;;;6.57;2.30;;;21.80;77.00;;;;;;5056544;28;20031;-61
2023/10/01 12:30:57;;;;;;;6.90;1.98;;;21.80;77.00;;;;;;5060834;28;20063;-61
2023/10/01 12:33:38;;;;;;;4.65;2.05;;;21.80;76.80;;;;;;5058947;28;20024;-60
2023/10/01 12:36:31;;;;;;;5.05;2.20;;;21.70;76.30;;;;;;5059387;28;20086;-61
2023/10/01 12:44:25;;;;;;;4.35;1.73;;;21.70;76.10;;;;;;5061673;28;20052;-61
2023/10/01 12:46:54;;;;;;;7.65;2.15;;;21.70;76.70;;;;;;5059782;28;20039;-61
2023/10/01 12:49:22;;;;;;;4.30;1.67;;;21.70;76.60;;;;;;5060533;28;20746;-62
2023/10/01 12:51:54;;;;;;;5.05;2.05;;;21.70;76.10;;;;;;5059738;28;20024;-61
2023/10/01 12:54:27;;;;;;;3.45;1.63;;;21.80;76.20;;;;;;5060738;28;20020;-61
2023/10/01 12:57:10;;;;;;;6.80;2.03;;;21.80;76.70;;;;;;5058767;28;20161;-61
2023/10/01 12:59:41;;;;;;;4.93;1.70;;;21.90;75.90;;;;;;5062521;28;20143;-61
2023/10/01 13:02:49;;;;;;;6.90;1.85;;;21.90;76.00;;;;;;5055986;28;20064;-61
2023/10/01 13:05:27;;;;;;;5.15;1.85;;;21.90;74.50;;;;;;5056459;28;20874;-61
2023/10/01 13:07:58;;;;;;;4.43;1.50;;;21.90;74.30;;;;;;5056670;28;20114;-62
2023/10/01 13:10:34;;;;;;;4.97;2.03;;;21.90;74.60;;;;;;5062948;28;20052;-61
2023/10/01 13:13:05;;;;;;;5.30;1.85;;;21.90;75.40;;;;;;5059815;28;20039;-62
2023/10/01 13:15:33;;;;;;;4.63;2.33;;;22.00;76.10;;;;;;5060964;28;20115;-61
2023/10/01 13:18:09;;;;;;;8.07;2.40;;;22.00;76.00;;;;;;5058525;28;20036;-61
2023/10/01 13:20:46;;;;;;;4.28;1.85;;;22.10;76.50;;;;;;5060612;28;20114;-62
2023/10/01 13:23:12;;;;;;;11.40;2.17;;;22.10;77.40;;;;;;5058452;28;20032;-61
2023/10/01 13:25:46;;;;;;;7.20;1.88;;;22.00;77.30;;;;;;5061404;28;20025;-62
2023/10/01 13:28:19;;;;;;;4.75;2.08;;;21.90;77.40;;;;;;5058036;28;20029;-61
2023/10/01 13:33:43;;;;;;;4.65;1.90;;;21.80;75.50;;;;;;5056969;28;20028;-62
2023/10/01 13:36:13;;;;;;;4.50;1.98;;;21.70;75.00;;;;;;5060019;28;20059;-62
2023/10/01 13:38:56;;;;;;;6.95;2.33;;;21.70;75.60;;;;;;5057533;28;20119;-61
2023/10/01 14:09:09;;;;;;;7.75;2.60;;;21.30;78.40;;;;;;4993063;28;20202;-61
2023/10/01 14:11:39;;;;;;;8.25;3.65;;;21.30;78.30;;;;;;5038288;28;20057;-61
2023/10/01 14:14:08;;;;;;;7.60;3.03;;;21.30;78.90;;;;;;5057616;28;20036;-62
2023/10/01 14:16:34;;;;;;;5.78;3.55;;;21.30;78.80;;;;;;5059352;28;20041;-61
2023/10/01 14:19:15;;;;;;;7.53;2.47;;;21.30;79.80;;;;;;5057287;28;20033;-62
2023/10/01 14:21:41;;;;;;;4.10;1.88;;;21.30;79.00;;;;;;5057875;28;20085;-62
2023/10/01 14:24:23;;;;;;;7.95;2.00;;;21.30;79.20;;;;;;5057192;28;20727;-62
2023/10/01 14:26:50;;;;;;;4.90;2.08;;;21.40;79.10;;;;;;5058328;28;20152;-63
2023/10/01 14:29:22;;;;;;;8.80;2.90;;;21.30;78.90;;;;;;5056892;28;20070;-62
2023/10/01 14:31:50;;;;;;;5.10;2.60;;;21.40;79.00;;;;;;5060240;28;20028;-62
2023/10/01 14:34:20;;;;;;;6.45;2.60;;;21.30;79.60;;;;;;5055819;28;20478;-62
2023/10/01 14:36:47;;;;;;;7.45;3.08;;;21.20;80.10;;;;;;5062118;28;20106;-62
2023/10/01 14:39:14;;;;;;;5.95;2.88;;;21.30;79.80;;;;;;5056976;28;20512;-62
2023/10/01 14:41:45;;;;;;;8.40;2.78;;;21.20;80.50;;;;;;5055571;28;20875;-62
2023/10/01 14:44:15;;;;;;;6.82;2.55;;;21.20;81.20;;;;;;5056873;28;20416;-62
2023/10/01 14:46:41;;;;;;;5.03;2.28;;;21.20;80.80;;;;;;5059565;28;20739;-62
2023/10/01 14:49:07;;;;;;;7.38;2.53;;;21.20;80.60;;;;;;5057117;28;20792;-61
2023/10/01 14:51:37;;;;;;;5.97;2.60;;;21.20;80.40;;;;;;5058993;28;20029;-61
2023/10/01 14:54:05;;;;;;;5.22;2.50;;;21.20;80.30;;;;;;5057332;28;20762;-61
2023/10/01 14:56:33;;;;;;;6.25;2.75;;;21.20;80.70;;;;;;5058818;28;20043;-61